createdAt,value
2018-05-14T00:00:44.358Z,144.20
2018-05-14T00:01:44.359Z,162.40
2018-05-14T00:02:44.357Z,157.60
2018-05-14T00:03:44.404Z,154.10
2018-05-14T00:04:44.350Z,162.20
2018-05-14T00:05:44.342Z,163.60
2018-05-14T00:06:44.339Z,166.10
2018-05-14T00:07:44.336Z,164.10
2018-05-14T00:08:44.333Z,166.30
2018-05-14T00:09:44.336Z,164.60
2018-05-14T00:10:44.331Z,160.60
2018-05-14T00:11:44.329Z,168.00
2018-05-14T00:12:44.363Z,169.70
2018-05-14T00:13:44.318Z,181.90
2018-05-14T00:14:44.313Z,181.90
2018-05-14T00:15:44.316Z,172.10
2018-05-14T00:16:44.315Z,176.20
2018-05-14T00:17:44.305Z,176.20
2018-05-14T00:18:44.305Z,176.90
2018-05-14T00:19:44.298Z,187.60
2018-05-14T00:20:44.296Z,181.50
2018-05-14T00:21:44.298Z,190.70
2018-05-14T00:22:44.295Z,172.80
2018-05-14T00:23:44.291Z,189.90
2018-05-14T00:24:44.288Z,189.50
2018-05-14T00:25:44.285Z,195.40
2018-05-14T00:26:44.278Z,174.70
2018-05-14T00:27:44.275Z,180.90
2018-05-14T00:28:44.272Z,189.20
2018-05-14T00:29:44.276Z,190.50
2018-05-14T00:30:44.271Z,181.90
2018-05-14T00:31:44.263Z,187.50
2018-05-14T00:32:44.260Z,189.90
2018-05-14T00:33:44.262Z,188.70
2018-05-14T00:34:44.259Z,194.80
2018-05-14T00:35:44.256Z,198.20
2018-05-14T00:36:44.251Z,196.10
2018-05-14T00:37:44.245Z,191.70
2018-05-14T00:38:44.241Z,211.10
2018-05-14T00:39:44.239Z,189.50
2018-05-14T00:40:44.236Z,176.10
2018-05-14T00:41:44.237Z,181.40
2018-05-14T00:42:44.233Z,191.40
2018-05-14T00:43:44.233Z,175.80
2018-05-14T00:44:44.229Z,171.90
2018-05-14T00:45:44.222Z,172.40
2018-05-14T00:46:44.218Z,176.80
2018-05-14T00:47:44.219Z,178.60
2018-05-14T00:48:44.216Z,170.60
2018-05-14T00:49:44.211Z,168.80
2018-05-14T00:50:44.206Z,176.30
2018-05-14T00:51:44.207Z,162.60
2018-05-14T00:52:44.200Z,161.60
2018-05-14T00:53:44.202Z,164.80
2018-05-14T00:54:44.198Z,154.40
2018-05-14T00:55:44.197Z,152.10
2018-05-14T00:56:44.192Z,157.60
2018-05-14T00:57:44.187Z,157.80
2018-05-14T00:58:44.186Z,155.10
2018-05-14T00:59:44.181Z,159.90
2018-05-14T01:00:44.176Z,144.40
2018-05-14T01:01:44.178Z,152.80
2018-05-14T01:02:44.177Z,146.20
2018-05-14T01:03:44.167Z,154.40
2018-05-14T01:04:44.164Z,150.00
2018-05-14T01:05:44.166Z,147.00
2018-05-14T01:06:44.163Z,152.60
2018-05-14T01:07:44.160Z,147.40
2018-05-14T01:08:44.157Z,146.30
2018-05-14T01:09:44.150Z,147.00
2018-05-14T01:10:44.146Z,148.70
2018-05-14T01:11:44.143Z,148.00
2018-05-14T01:12:44.141Z,138.20
2018-05-14T01:13:44.142Z,144.40
2018-05-14T01:14:44.139Z,143.50
2018-05-14T01:15:44.141Z,147.30
2018-05-14T01:16:44.135Z,131.50
2018-05-14T01:17:44.131Z,141.90
2018-05-14T01:18:44.122Z,145.60
2018-05-14T01:19:44.127Z,136.00
2018-05-14T01:20:44.123Z,142.10
2018-05-14T01:21:44.115Z,133.10
2018-05-14T01:22:44.111Z,132.60
2018-05-14T01:23:44.108Z,133.90
2018-05-14T01:24:44.105Z,135.70
2018-05-14T01:25:44.110Z,138.30
2018-05-14T01:26:44.105Z,131.10
2018-05-14T01:27:44.103Z,144.40
2018-05-14T01:28:44.098Z,148.40
2018-05-14T01:29:44.090Z,142.60
2018-05-14T01:30:44.086Z,145.40
2018-05-14T01:31:44.083Z,143.30
2018-05-14T01:32:44.081Z,143.70
2018-05-14T01:33:44.088Z,147.70
2018-05-14T01:34:44.079Z,154.30
2018-05-14T01:35:44.072Z,148.80
2018-05-14T01:36:44.069Z,156.60
2018-05-14T01:37:44.071Z,152.80
2018-05-14T01:38:44.067Z,149.30
2018-05-14T01:39:44.064Z,160.90
2018-05-14T01:40:44.062Z,151.10
2018-05-14T01:41:44.055Z,143.50
2018-05-14T01:42:44.051Z,164.50
2018-05-14T01:43:44.048Z,165.70
2018-05-14T01:44:44.045Z,159.60
2018-05-14T01:45:44.047Z,159.60
2018-05-14T01:46:44.044Z,162.20
2018-05-14T01:47:44.040Z,151.90
2018-05-14T01:48:44.037Z,162.90
2018-05-14T01:49:44.029Z,153.60
2018-05-14T01:50:44.026Z,157.40
2018-05-14T01:51:44.027Z,157.70
2018-05-14T01:52:44.025Z,152.70
2018-05-14T01:53:44.022Z,148.40
2018-05-14T01:54:44.013Z,162.90
2018-05-14T01:55:44.012Z,166.60
2018-05-14T01:56:44.008Z,162.50
2018-05-14T01:57:44.011Z,160.60
2018-05-14T01:58:44.006Z,158.40
2018-05-14T01:59:44.003Z,166.30
2018-05-14T02:00:44.001Z,173.90
2018-05-14T02:01:43.992Z,173.00
2018-05-14T02:02:43.989Z,166.00
2018-05-14T02:03:44.000Z,162.90
2018-05-14T02:04:43.983Z,169.90
2018-05-14T02:05:43.986Z,169.30
2018-05-14T02:06:44.042Z,170.10
2018-05-14T02:07:43.975Z,172.80
2018-05-14T02:08:43.972Z,189.90
2018-05-14T02:09:43.972Z,157.80
2018-05-14T02:10:43.968Z,170.50
2018-05-14T02:11:43.966Z,174.50
2018-05-14T02:12:43.964Z,172.80
2018-05-14T02:13:43.956Z,189.10
2018-05-14T02:14:43.953Z,174.30
2018-05-14T02:15:43.950Z,182.90
2018-05-14T02:16:43.946Z,180.70
2018-05-14T02:17:43.949Z,175.10
2018-05-14T02:18:43.949Z,183.30
2018-05-14T02:19:43.941Z,183.60
2018-05-14T02:20:43.939Z,182.80
2018-05-14T02:21:43.933Z,176.00
2018-05-14T02:22:43.926Z,172.30
2018-05-14T02:23:43.928Z,170.10
2018-05-14T02:24:43.926Z,186.20
2018-05-14T02:25:43.920Z,163.10
2018-05-14T02:26:43.914Z,166.90
2018-05-14T02:27:43.912Z,172.00
2018-05-14T02:28:43.913Z,178.90
2018-05-14T02:29:43.911Z,173.40
2018-05-14T02:30:43.909Z,166.20
2018-05-14T02:31:43.904Z,165.20
2018-05-14T02:32:43.901Z,184.60
2018-05-14T02:33:43.893Z,165.80
2018-05-14T02:34:43.955Z,167.40
2018-05-14T02:35:43.890Z,181.80
2018-05-14T02:36:43.883Z,181.10
2018-05-14T02:37:43.887Z,156.10
2018-05-14T02:38:43.882Z,158.90
2018-05-14T02:39:43.875Z,173.30
2018-05-14T02:40:43.873Z,163.20
2018-05-14T02:41:43.881Z,155.40
2018-05-14T02:42:43.870Z,174.30
2018-05-14T02:43:43.867Z,164.20
2018-05-14T02:44:43.867Z,157.90
2018-05-14T02:45:43.856Z,152.40
2018-05-14T02:46:43.853Z,157.70
2018-05-14T02:47:43.851Z,149.00
2018-05-14T02:48:43.847Z,153.30
2018-05-14T02:49:43.849Z,154.10
2018-05-14T02:50:43.844Z,156.00
2018-05-14T02:51:43.844Z,151.80
2018-05-14T02:52:43.844Z,148.30
2018-05-14T02:53:43.832Z,133.00
2018-05-14T02:54:43.828Z,150.60
2018-05-14T02:55:43.831Z,139.20
2018-05-14T02:56:43.828Z,149.90
2018-05-14T02:57:43.821Z,136.60
2018-05-14T02:58:43.816Z,137.00
2018-05-14T02:59:43.814Z,132.80
2018-05-14T03:00:43.810Z,129.20
2018-05-14T03:01:43.811Z,122.60
2018-05-14T03:02:43.809Z,119.80
2018-05-14T03:03:43.805Z,124.00
2018-05-14T03:04:43.803Z,112.30
2018-05-14T03:05:43.800Z,117.00
2018-05-14T03:06:43.793Z,119.00
2018-05-14T03:07:43.789Z,117.90
2018-05-14T03:08:43.787Z,128.70
2018-05-14T03:09:43.790Z,114.00
2018-05-14T03:10:43.785Z,114.60
2018-05-14T03:11:43.778Z,111.70
2018-05-14T03:12:43.774Z,107.00
2018-05-14T03:13:43.777Z,114.40
2018-05-14T03:14:43.779Z,115.00
2018-05-14T03:15:43.769Z,109.30
2018-05-14T03:16:43.769Z,108.30
2018-05-14T03:17:43.760Z,103.00
2018-05-14T03:18:43.756Z,104.70
2018-05-14T03:19:43.753Z,105.40
2018-05-14T03:20:43.750Z,105.10
2018-05-14T03:21:43.752Z,107.50
2018-05-14T03:22:43.748Z,100.40
2018-05-14T03:23:43.747Z,101.30
2018-05-14T03:24:43.744Z,103.00
2018-05-14T03:25:43.736Z,95.80
2018-05-14T03:26:43.732Z,111.60
2018-05-14T03:27:43.735Z,95.30
2018-05-14T03:28:43.732Z,99.50
2018-05-14T03:29:43.724Z,101.10
2018-05-14T03:30:43.721Z,98.10
2018-05-14T03:31:43.725Z,104.50
2018-05-14T03:32:43.714Z,98.90
2018-05-14T03:33:43.715Z,94.10
2018-05-14T03:34:43.712Z,107.90
2018-05-14T03:35:43.710Z,104.50
2018-05-14T03:36:43.708Z,101.20
2018-05-14T03:37:43.700Z,115.00
2018-05-14T03:38:43.697Z,102.30
2018-05-14T03:39:43.693Z,100.70
2018-05-14T03:40:43.690Z,99.00
2018-05-14T03:41:43.693Z,105.00
2018-05-14T03:42:43.691Z,101.90
2018-05-14T03:43:43.681Z,92.50
2018-05-14T03:44:43.678Z,98.70
2018-05-14T03:45:43.680Z,106.80
2018-05-14T03:46:43.729Z,106.60
2018-05-14T03:47:43.674Z,107.40
2018-05-14T03:48:43.671Z,111.60
2018-05-14T03:49:43.664Z,109.10
2018-05-14T03:50:43.659Z,108.00
2018-05-14T03:51:43.656Z,105.10
2018-05-14T03:52:43.653Z,111.40
2018-05-14T03:53:43.657Z,103.30
2018-05-14T03:54:43.652Z,114.30
2018-05-14T03:55:43.648Z,104.90
2018-05-14T03:56:43.646Z,106.40
2018-05-14T03:57:43.639Z,100.80
2018-05-14T03:58:43.639Z,109.30
2018-05-14T03:59:43.637Z,101.70
2018-05-14T04:00:43.634Z,108.30
2018-05-14T04:01:43.627Z,104.90
2018-05-14T04:02:43.623Z,96.00
2018-05-14T04:03:43.620Z,108.80
2018-05-14T04:04:43.619Z,102.50
2018-05-14T04:05:43.619Z,103.40
2018-05-14T04:06:43.616Z,103.90
2018-05-14T04:07:43.614Z,97.10
2018-05-14T04:08:43.611Z,112.40
2018-05-14T04:09:43.602Z,114.80
2018-05-14T04:10:43.609Z,104.40
2018-05-14T04:11:43.595Z,111.20
2018-05-14T04:12:43.592Z,111.40
2018-05-14T04:13:43.599Z,112.50
2018-05-14T04:14:43.590Z,117.60
2018-05-14T04:15:43.583Z,103.50
2018-05-14T04:16:43.580Z,105.30
2018-05-14T04:17:43.582Z,106.30
2018-05-14T04:18:43.579Z,105.50
2018-05-14T04:19:43.577Z,106.90
2018-05-14T04:20:43.572Z,106.20
2018-05-14T04:21:43.565Z,113.40
2018-05-14T04:22:43.561Z,111.30
2018-05-14T04:23:43.558Z,112.00
2018-05-14T04:24:43.557Z,114.40
2018-05-14T04:25:43.558Z,112.40
2018-05-14T04:26:43.554Z,109.30
2018-05-14T04:27:43.552Z,112.80
2018-05-14T04:28:43.547Z,113.10
2018-05-14T04:29:43.539Z,112.80
2018-05-14T04:30:43.536Z,118.70
2018-05-14T04:31:43.537Z,99.00
2018-05-14T04:32:43.535Z,115.80
2018-05-14T04:33:43.526Z,117.20
2018-05-14T04:34:43.524Z,113.00
2018-05-14T04:35:43.521Z,116.70
2018-05-14T04:36:43.518Z,110.70
2018-05-14T04:37:43.520Z,107.90
2018-05-14T04:38:43.523Z,104.10
2018-05-14T04:39:43.509Z,109.50
2018-05-14T04:40:43.506Z,109.20
2018-05-14T04:41:43.507Z,106.10
2018-05-14T04:42:43.504Z,105.10
2018-05-14T04:43:43.500Z,106.40
2018-05-14T04:44:43.497Z,113.80
2018-05-14T04:45:43.490Z,112.90
2018-05-14T04:46:43.486Z,113.10
2018-05-14T04:47:43.488Z,106.20
2018-05-14T04:48:43.485Z,114.30
2018-05-14T04:49:43.480Z,110.50
2018-05-14T04:50:43.474Z,110.90
2018-05-14T04:51:43.475Z,107.10
2018-05-14T04:52:43.468Z,106.30
2018-05-14T04:53:43.470Z,108.10
2018-05-14T04:54:43.467Z,119.00
2018-05-14T04:55:43.464Z,117.00
2018-05-14T04:56:43.459Z,109.30
2018-05-14T04:57:43.453Z,99.40
2018-05-14T04:58:43.449Z,115.60
2018-05-14T04:59:43.447Z,112.20
2018-05-14T05:00:43.444Z,103.40
2018-05-14T05:01:43.445Z,107.50
2018-05-14T05:02:43.441Z,114.30
2018-05-14T05:03:43.434Z,106.00
2018-05-14T05:04:43.431Z,109.00
2018-05-14T05:05:43.434Z,112.50
2018-05-14T05:06:43.430Z,119.90
2018-05-14T05:07:43.426Z,118.50
2018-05-14T05:08:43.423Z,114.10
2018-05-14T05:09:43.416Z,112.50
2018-05-14T05:10:43.415Z,111.20
2018-05-14T05:11:43.411Z,113.90
2018-05-14T05:12:43.407Z,112.10
2018-05-14T05:13:43.408Z,114.10
2018-05-14T05:14:43.408Z,123.60
2018-05-14T05:15:43.403Z,122.00
2018-05-14T05:16:43.401Z,120.50
2018-05-14T05:17:43.393Z,117.20
2018-05-14T05:18:43.389Z,121.10
2018-05-14T05:19:43.392Z,121.00
2018-05-14T05:20:43.388Z,113.30
2018-05-14T05:21:43.382Z,113.80
2018-05-14T05:22:43.412Z,119.70
2018-05-14T05:23:43.375Z,118.40
2018-05-14T05:24:43.372Z,123.20
2018-05-14T05:25:43.374Z,119.30
2018-05-14T05:26:43.371Z,119.30
2018-05-14T05:27:43.368Z,123.30
2018-05-14T05:28:43.367Z,121.10
2018-05-14T05:29:43.359Z,119.40
2018-05-14T05:30:43.355Z,128.10
2018-05-14T05:31:43.354Z,117.10
2018-05-14T05:32:43.351Z,124.20
2018-05-14T05:33:43.353Z,116.40
2018-05-14T05:34:43.351Z,125.50
2018-05-14T05:35:43.343Z,121.70
2018-05-14T05:36:43.341Z,122.30
2018-05-14T05:37:43.409Z,130.10
2018-05-14T05:38:43.339Z,124.50
2018-05-14T05:39:43.337Z,125.60
2018-05-14T05:40:43.334Z,131.00
2018-05-14T05:41:43.327Z,122.10
2018-05-14T05:42:43.323Z,122.60
2018-05-14T05:43:43.326Z,112.80
2018-05-14T05:44:43.319Z,114.50
2018-05-14T05:45:43.322Z,110.90
2018-05-14T05:46:43.326Z,124.80
2018-05-14T05:47:43.316Z,117.00
2018-05-14T05:48:43.313Z,112.40
2018-05-14T05:49:43.306Z,110.70
2018-05-14T05:50:43.305Z,106.70
2018-05-14T05:51:43.305Z,115.30
2018-05-14T05:52:43.303Z,111.40
2018-05-14T05:53:43.296Z,103.50
2018-05-14T05:54:43.294Z,98.60
2018-05-14T05:55:43.292Z,91.50
2018-05-14T05:56:43.289Z,103.50
2018-05-14T05:57:43.291Z,97.60
2018-05-14T05:58:43.289Z,96.10
2018-05-14T05:59:43.287Z,99.80
2018-05-14T06:00:43.285Z,100.00
2018-05-14T06:01:43.278Z,97.00
2018-05-14T06:02:43.274Z,99.50
2018-05-14T06:03:43.274Z,102.20
2018-05-14T06:04:43.274Z,93.00
2018-05-14T06:05:43.273Z,92.60
2018-05-14T06:06:43.270Z,96.30
2018-05-14T06:07:43.263Z,92.10
2018-05-14T06:08:43.260Z,98.40
2018-05-14T06:09:43.263Z,96.90
2018-05-14T06:10:43.260Z,87.50
2018-05-14T06:11:43.258Z,96.30
2018-05-14T06:12:43.256Z,99.20
2018-05-14T06:13:43.251Z,94.40
2018-05-14T06:14:43.247Z,95.90
2018-05-14T06:15:43.244Z,95.90
2018-05-14T06:16:43.243Z,103.20
2018-05-14T06:17:43.245Z,100.20
2018-05-14T06:18:43.243Z,102.00
2018-05-14T06:19:43.239Z,92.60
2018-05-14T06:20:43.237Z,101.40
2018-05-14T06:21:43.231Z,96.30
2018-05-14T06:22:43.229Z,99.90
2018-05-14T06:23:43.230Z,100.30
2018-05-14T06:24:43.229Z,100.90
2018-05-14T06:25:43.224Z,93.60
2018-05-14T06:26:43.221Z,103.50
2018-05-14T06:27:43.263Z,94.70
2018-05-14T06:28:43.215Z,97.30
2018-05-14T06:29:43.224Z,96.40
2018-05-14T06:30:43.215Z,95.30
2018-05-14T06:31:43.219Z,86.80
2018-05-14T06:32:43.218Z,97.40
2018-05-14T06:33:43.206Z,92.10
2018-05-14T06:34:43.203Z,91.80
2018-05-14T06:35:43.232Z,93.80
2018-05-14T06:36:43.201Z,95.00
2018-05-14T06:37:43.203Z,100.10
2018-05-14T06:38:43.200Z,90.90
2018-05-14T06:39:43.197Z,99.60
2018-05-14T06:40:43.193Z,95.10
2018-05-14T06:41:43.195Z,93.40
2018-05-14T06:42:43.192Z,93.60
2018-05-14T06:43:43.192Z,92.80
2018-05-14T06:44:43.190Z,99.80
2018-05-14T06:45:43.185Z,94.00
2018-05-14T06:46:43.182Z,87.60
2018-05-14T06:47:43.180Z,96.80
2018-05-14T06:48:43.178Z,92.10
2018-05-14T06:49:43.211Z,90.40
2018-05-14T06:50:43.179Z,86.20
2018-05-14T06:51:43.177Z,90.80
2018-05-14T06:52:43.177Z,87.40
2018-05-14T06:53:43.170Z,80.00
2018-05-14T06:54:43.171Z,77.00
2018-05-14T06:55:43.172Z,82.30
2018-05-14T06:56:43.169Z,83.90
2018-05-14T06:57:43.163Z,79.90
2018-05-14T06:58:43.161Z,83.70
2018-05-14T06:59:43.160Z,88.70
2018-05-14T07:00:43.160Z,82.50
2018-05-14T07:01:43.321Z,79.20
2018-05-14T07:02:43.161Z,82.80
2018-05-14T07:03:43.158Z,84.80
2018-05-14T07:04:43.158Z,82.40
2018-05-14T07:05:43.152Z,80.90
2018-05-14T07:06:43.149Z,78.40
2018-05-14T07:07:43.149Z,82.70
2018-05-14T07:08:43.148Z,86.30
2018-05-14T07:09:43.151Z,79.60
2018-05-14T07:10:43.152Z,79.60
2018-05-14T07:11:43.143Z,80.20
2018-05-14T07:12:43.143Z,80.50
2018-05-14T07:13:43.146Z,81.50
2018-05-14T07:14:43.144Z,80.70
2018-05-14T07:15:43.143Z,75.10
2018-05-14T07:16:43.142Z,72.20
2018-05-14T07:17:43.138Z,78.40
2018-05-14T07:18:43.135Z,79.90
2018-05-14T07:19:43.135Z,79.60
2018-05-14T07:20:43.133Z,78.60
2018-05-14T07:21:43.138Z,82.20
2018-05-14T07:22:43.137Z,76.00
2018-05-14T07:23:43.136Z,76.70
2018-05-14T07:24:43.222Z,79.50
2018-05-14T07:25:43.130Z,68.60
2018-05-14T07:26:43.127Z,73.50
2018-05-14T07:27:43.132Z,69.50
2018-05-14T07:28:43.131Z,70.90
2018-05-14T07:29:43.126Z,68.80
2018-05-14T07:30:43.125Z,66.20
2018-05-14T07:31:43.124Z,63.20
2018-05-14T07:32:43.124Z,60.60
2018-05-14T07:33:43.130Z,60.10
2018-05-14T07:34:43.128Z,60.60
2018-05-14T07:35:43.128Z,56.80
2018-05-14T07:36:43.137Z,62.80
2018-05-14T07:37:43.127Z,55.10
2018-05-14T07:38:43.127Z,59.10
2018-05-14T07:39:43.128Z,56.50
2018-05-14T07:40:43.130Z,62.40
2018-05-14T07:41:43.136Z,58.90
2018-05-14T07:42:43.139Z,60.70
2018-05-14T07:43:43.136Z,61.90
2018-05-14T07:44:43.136Z,62.40
2018-05-14T07:45:43.144Z,62.10
2018-05-14T07:46:43.144Z,60.50
2018-05-14T07:47:43.146Z,59.10
2018-05-14T07:48:43.148Z,54.20
2018-05-14T07:49:43.146Z,54.00
2018-05-14T07:50:43.150Z,53.80
2018-05-14T07:51:43.151Z,55.80
2018-05-14T07:52:43.154Z,55.60
2018-05-14T07:53:43.161Z,54.30
2018-05-14T07:54:43.165Z,58.80
2018-05-14T07:55:43.166Z,55.50
2018-05-14T07:56:43.169Z,53.70
2018-05-14T07:57:43.169Z,57.70
2018-05-14T07:58:43.172Z,56.50
2018-05-14T07:59:43.179Z,56.10
2018-05-14T08:00:43.181Z,56.40
2018-05-14T08:01:43.258Z,58.60
2018-05-14T08:02:43.184Z,53.50
2018-05-14T08:03:43.186Z,50.40
2018-05-14T08:04:43.189Z,53.30
2018-05-14T08:05:43.408Z,51.70
2018-05-14T08:06:43.199Z,47.50
2018-05-14T08:07:43.205Z,51.50
2018-05-14T08:08:43.207Z,49.50
2018-05-14T08:09:43.205Z,46.50
2018-05-14T08:10:43.208Z,45.70
2018-05-14T08:11:43.299Z,44.70
2018-05-14T08:12:43.215Z,44.00
2018-05-14T08:13:43.222Z,44.70
2018-05-14T08:14:43.224Z,43.60
2018-05-14T08:15:43.225Z,45.00
2018-05-14T08:16:43.227Z,42.90
2018-05-14T08:17:43.237Z,42.80
2018-05-14T08:18:43.241Z,43.20
2018-05-14T08:19:43.242Z,44.30
2018-05-14T08:20:43.246Z,43.70
2018-05-14T08:21:43.245Z,42.20
2018-05-14T08:22:43.251Z,40.80
2018-05-14T08:23:43.251Z,37.90
2018-05-14T08:24:43.255Z,36.10
2018-05-14T08:25:43.266Z,32.40
2018-05-14T08:26:43.269Z,31.30
2018-05-14T08:27:43.274Z,29.20
2018-05-14T08:28:43.280Z,28.10
2018-05-14T08:29:43.283Z,27.60
2018-05-14T08:30:43.288Z,26.50
2018-05-14T08:31:43.299Z,25.10
2018-05-14T08:32:43.318Z,24.60
2018-05-14T08:33:43.309Z,25.30
2018-05-14T08:34:43.318Z,25.80
2018-05-14T08:35:43.329Z,24.10
2018-05-14T08:36:43.334Z,25.40
2018-05-14T08:37:43.348Z,25.30
2018-05-14T08:38:43.356Z,25.20
2018-05-14T08:39:43.365Z,26.20
2018-05-14T08:40:43.374Z,1999.90
2018-05-14T08:41:43.377Z,1999.90
2018-05-14T08:42:43.388Z,619.90
2018-05-14T08:43:43.398Z,218.30
2018-05-14T08:44:43.407Z,26.50
2018-05-14T08:45:43.416Z,25.40
2018-05-14T08:46:43.427Z,28.10
2018-05-14T08:47:43.430Z,606.50
2018-05-14T08:48:43.440Z,1999.90
2018-05-14T08:49:43.453Z,1999.90
2018-05-14T08:50:43.462Z,1999.90
2018-05-14T08:51:43.472Z,1999.90
2018-05-14T08:52:43.480Z,1999.90
2018-05-14T08:53:43.485Z,1999.90
2018-05-14T08:54:43.579Z,1999.90
2018-05-14T08:55:43.501Z,1999.90
2018-05-14T08:56:43.511Z,1999.90
2018-05-14T08:57:43.587Z,1999.90
2018-05-14T08:58:43.531Z,1979.50
2018-05-14T08:59:43.541Z,1534.40
2018-05-14T09:00:43.565Z,1999.90
2018-05-14T09:01:43.551Z,1999.90
2018-05-14T09:02:43.560Z,1999.90
2018-05-14T09:03:43.572Z,1363.10
2018-05-14T09:04:43.583Z,169.80
2018-05-14T09:05:43.587Z,25.60
2018-05-14T09:06:43.594Z,21.90
2018-05-14T09:07:43.606Z,21.70
2018-05-14T09:08:43.634Z,21.60
2018-05-14T09:09:43.631Z,20.90
2018-05-14T09:10:43.640Z,20.50
2018-05-14T09:11:43.652Z,20.60
2018-05-14T09:12:43.662Z,21.60
2018-05-14T09:13:43.669Z,21.50
2018-05-14T09:14:43.680Z,21.70
2018-05-14T09:15:43.691Z,22.80
2018-05-14T09:16:43.706Z,21.10
2018-05-14T09:17:43.719Z,21.80
2018-05-14T09:18:43.732Z,22.10
2018-05-14T09:19:43.796Z,22.90
2018-05-14T09:20:43.750Z,22.00
2018-05-14T09:21:43.769Z,20.80
2018-05-14T09:22:43.782Z,19.70
2018-05-14T09:23:43.792Z,18.00
2018-05-14T09:24:43.804Z,17.40
2018-05-14T09:25:43.813Z,17.00
2018-05-14T09:26:43.825Z,17.20
2018-05-14T09:27:43.838Z,13.60
2018-05-14T09:28:43.853Z,14.30
2018-05-14T09:29:43.873Z,14.60
2018-05-14T09:30:43.886Z,15.00
2018-05-14T09:31:43.902Z,14.10
2018-05-14T09:32:43.917Z,13.60
2018-05-14T09:33:43.928Z,11.30
2018-05-14T09:34:43.943Z,11.40
2018-05-14T09:35:43.963Z,11.90
2018-05-14T09:36:44.027Z,12.30
2018-05-14T09:37:43.991Z,12.50
2018-05-14T09:38:44.007Z,11.90
2018-05-14T09:39:44.024Z,12.70
2018-05-14T09:40:44.040Z,11.60
2018-05-14T09:41:44.064Z,11.80
2018-05-14T09:42:44.078Z,12.30
2018-05-14T09:43:44.094Z,12.00
2018-05-14T09:44:44.114Z,12.10
2018-05-14T09:45:44.125Z,11.80
2018-05-14T09:46:44.141Z,12.30
2018-05-14T09:47:44.158Z,12.10
2018-05-14T09:48:44.176Z,11.50
2018-05-14T09:49:44.199Z,12.30
2018-05-14T09:50:44.218Z,12.30
2018-05-14T09:51:44.227Z,10.60
2018-05-14T09:52:44.245Z,11.60
2018-05-14T09:53:44.267Z,10.60
2018-05-14T09:54:44.284Z,10.30
2018-05-14T09:55:44.304Z,11.70
2018-05-14T09:56:44.320Z,11.40
2018-05-14T09:57:44.334Z,12.10
2018-05-14T09:58:44.350Z,11.30
2018-05-14T09:59:44.369Z,11.20
2018-05-14T10:00:44.386Z,11.20
2018-05-14T10:01:44.410Z,11.70
2018-05-14T10:02:44.426Z,12.80
2018-05-14T10:03:44.445Z,11.60
2018-05-14T10:04:44.674Z,11.90
2018-05-14T10:05:44.475Z,13.30
2018-05-14T10:06:44.492Z,12.20
2018-05-14T10:07:44.516Z,12.10
2018-05-14T10:08:44.532Z,12.60
2018-05-14T10:09:44.545Z,12.40
2018-05-14T10:10:44.566Z,13.40
2018-05-14T10:11:44.579Z,14.80
2018-05-14T10:12:44.597Z,13.50
2018-05-14T10:13:44.618Z,14.20
2018-05-14T10:14:44.634Z,14.90
2018-05-14T10:15:44.651Z,14.00
2018-05-14T10:16:44.677Z,13.90
2018-05-14T10:17:44.681Z,15.20
2018-05-14T10:18:44.799Z,14.90
2018-05-14T10:19:44.713Z,15.40
2018-05-14T10:20:44.736Z,14.30
2018-05-14T10:21:44.753Z,14.50
2018-05-14T10:22:44.768Z,14.30
2018-05-14T10:23:44.781Z,15.20
2018-05-14T10:24:44.900Z,15.00
2018-05-14T10:25:44.819Z,15.30
2018-05-14T10:26:44.835Z,14.80
2018-05-14T10:27:44.850Z,15.60
2018-05-14T10:28:44.866Z,15.50
2018-05-14T10:29:44.883Z,15.80
2018-05-14T10:30:44.894Z,15.40
2018-05-14T10:31:44.910Z,14.40
2018-05-14T10:32:44.931Z,15.40
2018-05-14T10:33:44.948Z,17.10
2018-05-14T10:34:44.962Z,16.80
2018-05-14T10:35:44.980Z,14.50
2018-05-14T10:36:44.996Z,15.50
2018-05-14T10:37:45.012Z,14.70
2018-05-14T10:38:45.027Z,16.20
2018-05-14T10:39:45.044Z,16.20
2018-05-14T10:40:45.150Z,16.60
2018-05-14T10:41:45.071Z,17.00
2018-05-14T10:42:45.088Z,17.10
2018-05-14T10:43:45.105Z,17.90
2018-05-14T10:44:45.118Z,17.80
2018-05-14T10:45:45.138Z,18.70
2018-05-14T10:46:45.187Z,18.90
2018-05-14T10:47:45.169Z,18.10
2018-05-14T10:48:45.185Z,18.10
2018-05-14T10:49:45.196Z,18.00
2018-05-14T10:50:45.210Z,18.40
2018-05-14T10:51:45.227Z,18.10
2018-05-14T10:52:45.321Z,18.20
2018-05-14T10:53:45.264Z,18.00
2018-05-14T10:54:45.279Z,19.60
2018-05-14T10:55:45.289Z,20.90
2018-05-14T10:56:45.304Z,19.90
2018-05-14T10:57:45.325Z,21.00
2018-05-14T10:58:45.389Z,20.40
2018-05-14T10:59:45.353Z,21.30
2018-05-14T11:00:45.370Z,25.00
2018-05-14T11:01:45.379Z,19.60
2018-05-14T11:02:45.394Z,24.00
2018-05-14T11:03:45.409Z,21.00
2018-05-14T11:04:45.425Z,22.10
2018-05-14T11:05:45.447Z,22.20
2018-05-14T11:06:45.462Z,22.60
2018-05-14T11:07:45.475Z,22.00
2018-05-14T11:08:45.491Z,24.30
2018-05-14T11:09:45.503Z,20.30
2018-05-14T11:10:45.515Z,21.30
2018-05-14T11:11:45.536Z,21.00
2018-05-14T11:12:45.549Z,21.50
2018-05-14T11:13:45.559Z,22.00
2018-05-14T11:14:45.601Z,22.60
2018-05-14T11:15:45.585Z,22.90
2018-05-14T11:16:45.606Z,24.40
2018-05-14T11:17:45.625Z,24.70
2018-05-14T11:18:45.748Z,25.10
2018-05-14T11:19:45.655Z,22.10
2018-05-14T11:20:45.660Z,22.80
2018-05-14T11:21:45.670Z,23.90
2018-05-14T11:22:45.686Z,24.60
2018-05-14T11:23:45.765Z,25.40
2018-05-14T11:24:45.709Z,25.40
2018-05-14T11:25:45.723Z,28.30
2018-05-14T11:26:45.737Z,28.80
2018-05-14T11:27:45.797Z,28.40
2018-05-14T11:28:45.752Z,48.10
2018-05-14T11:29:45.767Z,1405.80
2018-05-14T11:30:45.777Z,1999.90
2018-05-14T11:31:45.787Z,1175.20
2018-05-14T11:32:45.797Z,1461.90
2018-05-14T11:33:45.801Z,869.30
2018-05-14T11:34:45.810Z,964.10
2018-05-14T11:35:45.819Z,378.20
2018-05-14T11:36:45.834Z,553.50
2018-05-14T11:37:45.840Z,346.90
2018-05-14T11:38:45.848Z,546.20
2018-05-14T11:39:45.854Z,1652.10
2018-05-14T11:40:45.863Z,927.40
2018-05-14T11:41:45.865Z,469.50
2018-05-14T11:42:45.872Z,245.40
2018-05-14T11:43:45.889Z,382.80
2018-05-14T11:44:45.891Z,125.10
2018-05-14T11:45:45.895Z,91.70
2018-05-14T11:46:45.905Z,81.80
2018-05-14T11:47:45.913Z,48.30
2018-05-14T11:48:45.913Z,83.70
2018-05-14T11:49:45.925Z,94.60
2018-05-14T11:50:46.012Z,51.50
2018-05-14T11:51:45.938Z,379.80
2018-05-14T11:52:45.948Z,107.10
2018-05-14T11:53:45.945Z,97.80
2018-05-14T11:54:45.952Z,354.20
2018-05-14T11:55:45.957Z,114.90
2018-05-14T11:56:46.000Z,33.40
2018-05-14T11:57:45.974Z,40.70
2018-05-14T11:58:45.978Z,146.30
2018-05-14T11:59:45.979Z,259.60
2018-05-14T12:00:45.986Z,311.70
2018-05-14T12:01:45.996Z,124.60
2018-05-14T12:02:46.046Z,822.40
2018-05-14T12:03:46.008Z,74.80
2018-05-14T12:04:46.013Z,75.00
2018-05-14T12:05:46.013Z,229.90
2018-05-14T12:06:46.018Z,232.90
2018-05-14T12:07:46.026Z,67.60
2018-05-14T12:08:46.028Z,27.00
2018-05-14T12:09:46.038Z,73.00
2018-05-14T12:10:46.062Z,28.20
2018-05-14T12:11:46.052Z,198.80
2018-05-14T12:12:46.054Z,1409.40
2018-05-14T12:13:46.054Z,45.10
2018-05-14T12:14:46.058Z,496.30
2018-05-14T12:15:46.069Z,27.30
2018-05-14T12:16:46.075Z,188.20
2018-05-14T12:17:46.073Z,39.70
2018-05-14T12:18:46.080Z,36.40
2018-05-14T12:19:46.083Z,26.40
2018-05-14T12:20:46.087Z,48.10
2018-05-14T12:21:46.097Z,32.70
2018-05-14T12:22:46.100Z,39.20
2018-05-14T12:23:46.105Z,27.90
2018-05-14T12:24:46.109Z,27.40
2018-05-14T12:25:46.143Z,140.00
2018-05-14T12:26:46.114Z,35.10
2018-05-14T12:27:46.119Z,171.90
2018-05-14T12:28:46.123Z,202.50
2018-05-14T12:29:46.137Z,29.50
2018-05-14T12:30:46.138Z,33.90
2018-05-14T12:31:46.137Z,28.80
2018-05-14T12:32:46.141Z,28.50
2018-05-14T12:33:46.150Z,233.90
2018-05-14T12:34:46.159Z,26.90
2018-05-14T12:35:46.159Z,27.80
2018-05-14T12:36:46.164Z,26.40
2018-05-14T12:37:46.168Z,25.60
2018-05-14T12:38:46.171Z,25.60